createdAt,value
2022-10-14T00:01:33.034Z,86.35
2022-10-14T00:04:02.350Z,86.24
2022-10-14T00:06:34.280Z,86.66
2022-10-14T00:09:06.801Z,86.42
2022-10-14T00:11:39.059Z,86.49
2022-10-14T00:14:11.653Z,86.26
2022-10-14T00:16:44.383Z,86.52
2022-10-14T00:19:15.722Z,86.62
2022-10-14T00:21:46.959Z,86.96
2022-10-14T00:24:18.919Z,86.66
2022-10-14T00:26:49.084Z,86.33
2022-10-14T00:29:19.831Z,86.45
2022-10-14T00:31:51.780Z,86.89
2022-10-14T00:34:20.931Z,86.83
2022-10-14T00:36:49.673Z,86.71
2022-10-14T00:39:20.778Z,86.82
2022-10-14T00:41:50.782Z,87.17
2022-10-14T00:47:01.919Z,86.89
2022-10-14T00:49:35.278Z,87.31
2022-10-14T00:52:10.168Z,87.92
2022-10-14T00:54:45.280Z,87.89
2022-10-14T00:57:15.205Z,87.63
2022-10-14T00:59:43.907Z,87.88
2022-10-14T01:02:13.996Z,88.03
2022-10-14T01:04:46.680Z,87.86
2022-10-14T01:07:33.049Z,88.22
2022-10-14T01:10:15.018Z,88.67
2022-10-14T01:13:06.151Z,88.74
2022-10-14T01:15:45.624Z,88.94
2022-10-14T01:18:38.257Z,88.58
2022-10-14T01:21:19.277Z,88.75
2022-10-14T01:24:41.784Z,88.53
2022-10-14T01:27:55.259Z,88.55
2022-10-14T01:30:27.835Z,88.64
2022-10-14T01:33:12.847Z,89.09
2022-10-14T01:36:01.186Z,89.12
2022-10-14T01:38:35.956Z,89.35
2022-10-14T01:41:15.323Z,89.45
2022-10-14T01:43:49.699Z,89.44
2022-10-14T01:46:24.016Z,89.54
2022-10-14T01:48:59.404Z,89.70
2022-10-14T01:51:35.902Z,89.78
2022-10-14T01:54:11.263Z,89.70
2022-10-14T01:56:42.739Z,89.68
2022-10-14T01:59:16.331Z,89.75
2022-10-14T02:01:46.383Z,89.79
2022-10-14T02:04:19.646Z,90.18
2022-10-14T02:06:58.956Z,89.77
2022-10-14T02:09:37.425Z,90.01
2022-10-14T02:12:23.139Z,89.69
2022-10-14T02:15:11.154Z,90.01
2022-10-14T02:17:55.184Z,89.98
2022-10-14T02:20:33.289Z,89.99
2022-10-14T02:23:14.760Z,90.20
2022-10-14T02:25:47.986Z,90.21
2022-10-14T02:28:21.930Z,90.69
2022-10-14T02:30:57.082Z,90.38
2022-10-14T02:33:37.816Z,90.54
2022-10-14T02:36:13.568Z,90.66
2022-10-14T02:38:44.604Z,91.07
2022-10-14T02:41:20.361Z,90.74
2022-10-14T02:43:53.006Z,91.09
2022-10-14T02:46:23.945Z,91.20
2022-10-14T02:48:53.986Z,91.50
2022-10-14T02:51:22.624Z,91.03
2022-10-14T02:53:51.353Z,91.24
2022-10-14T02:56:20.651Z,91.68
2022-10-14T02:58:49.398Z,91.48
2022-10-14T03:01:18.448Z,91.13
2022-10-14T03:03:47.215Z,91.30
2022-10-14T03:06:17.636Z,91.41
2022-10-14T03:08:48.195Z,91.60
2022-10-14T03:11:17.132Z,91.48
2022-10-14T03:13:46.352Z,91.45
2022-10-14T03:16:15.107Z,91.18
2022-10-14T03:18:46.728Z,91.77
2022-10-14T03:21:24.771Z,91.47
2022-10-14T03:23:54.184Z,91.95
2022-10-14T03:26:31.289Z,91.83
2022-10-14T03:29:00.006Z,91.87
2022-10-14T03:31:43.260Z,91.79
2022-10-14T03:34:31.780Z,91.84
2022-10-14T03:37:08.924Z,91.94
2022-10-14T03:39:45.997Z,91.92
2022-10-14T03:42:16.443Z,92.29
2022-10-14T03:44:49.181Z,91.93
2022-10-14T03:47:28.230Z,92.28
2022-10-14T03:49:56.922Z,92.43
2022-10-14T03:52:33.384Z,92.41
2022-10-14T03:55:08.849Z,92.36
2022-10-14T03:57:37.533Z,92.39
2022-10-14T04:00:09.758Z,92.32
2022-10-14T04:05:22.067Z,92.46
2022-10-14T04:07:52.134Z,92.52
2022-10-14T04:10:20.040Z,92.63
2022-10-14T04:12:54.888Z,92.53
2022-10-14T04:15:32.204Z,92.49
2022-10-14T04:18:15.902Z,92.25
2022-10-14T04:20:47.338Z,92.42
2022-10-14T04:23:18.081Z,92.33
2022-10-14T04:25:48.987Z,92.74
2022-10-14T04:28:18.339Z,92.66
2022-10-14T04:30:57.905Z,92.46
2022-10-14T04:33:32.551Z,92.70
2022-10-14T04:36:11.286Z,92.64
2022-10-14T04:38:42.638Z,92.81
2022-10-14T04:41:12.883Z,92.85
2022-10-14T04:43:47.900Z,92.76
2022-10-14T04:46:27.207Z,92.50
2022-10-14T04:48:56.487Z,92.78
2022-10-14T04:51:32.626Z,92.82
2022-10-14T04:54:18.516Z,92.77
2022-10-14T04:56:52.179Z,92.32
2022-10-14T04:59:21.412Z,92.63
2022-10-14T05:02:08.314Z,92.62
2022-10-14T05:04:45.248Z,92.65
2022-10-14T05:07:16.676Z,92.78
2022-10-14T05:09:50.373Z,92.75
2022-10-14T05:12:29.476Z,92.90
2022-10-14T05:15:01.806Z,92.81
2022-10-14T05:17:37.957Z,93.07
2022-10-14T05:20:09.137Z,93.05
2022-10-14T05:22:42.652Z,92.86
2022-10-14T05:25:11.778Z,92.86
2022-10-14T05:27:41.141Z,93.28
2022-10-14T05:30:12.087Z,93.34
2022-10-14T05:32:46.579Z,93.30
2022-10-14T05:35:15.508Z,93.48
2022-10-14T05:37:45.574Z,93.37
2022-10-14T05:40:14.330Z,93.65
2022-10-14T05:42:42.930Z,93.37
2022-10-14T05:45:12.502Z,93.48
2022-10-14T05:47:48.260Z,93.38
2022-10-14T05:50:20.214Z,93.45
2022-10-14T05:52:51.286Z,93.56
2022-10-14T05:55:25.879Z,93.60
2022-10-14T05:57:59.568Z,93.46
2022-10-14T06:00:34.846Z,93.52
2022-10-14T06:03:11.469Z,93.53
2022-10-14T06:05:41.069Z,93.50
2022-10-14T06:08:11.814Z,93.87
2022-10-14T06:10:40.723Z,93.57
2022-10-14T06:13:09.387Z,93.73
2022-10-14T06:15:40.475Z,93.64
2022-10-14T06:18:09.154Z,94.17
2022-10-14T06:20:37.939Z,93.97
2022-10-14T06:23:06.901Z,93.82
2022-10-14T06:25:38.070Z,93.97
2022-10-14T06:28:07.299Z,94.08
2022-10-14T06:30:36.100Z,94.16
2022-10-14T06:33:04.805Z,94.36
2022-10-14T06:35:33.531Z,94.22
2022-10-14T06:38:02.187Z,94.49
2022-10-14T06:40:31.006Z,94.36
2022-10-14T06:43:01.338Z,94.58
2022-10-14T06:45:30.210Z,94.55
2022-10-14T06:47:59.432Z,94.63
2022-10-14T06:50:28.131Z,94.68
2022-10-14T06:53:10.821Z,94.67
2022-10-14T06:55:39.429Z,94.58
2022-10-14T06:58:09.415Z,94.39
2022-10-14T07:00:38.321Z,94.59
2022-10-14T07:03:07.100Z,94.66
2022-10-14T07:05:36.862Z,94.96
2022-10-14T07:08:06.178Z,94.97
2022-10-14T07:10:35.968Z,95.04
2022-10-14T07:13:04.642Z,94.99
2022-10-14T07:15:36.222Z,95.28
2022-10-14T07:18:06.633Z,94.99
2022-10-14T07:20:36.011Z,95.36
2022-10-14T07:23:04.637Z,95.41
2022-10-14T07:25:34.080Z,95.43
2022-10-14T07:28:02.698Z,95.20
2022-10-14T07:30:31.568Z,95.28
2022-10-14T07:33:02.271Z,95.28
2022-10-14T07:35:30.987Z,95.36
2022-10-14T07:38:01.157Z,94.97
2022-10-14T07:40:30.106Z,95.09
2022-10-14T07:42:58.671Z,94.78
2022-10-14T07:45:27.267Z,94.84
2022-10-14T07:47:55.923Z,94.72
2022-10-14T07:50:25.984Z,94.93
2022-10-14T07:52:58.891Z,95.24
2022-10-14T07:55:29.560Z,95.26
2022-10-14T07:57:58.152Z,95.78
2022-10-14T08:00:26.844Z,95.97
2022-10-14T08:02:55.972Z,95.60
2022-10-14T08:05:37.773Z,95.45
2022-10-14T08:08:07.467Z,95.41
2022-10-14T08:10:36.982Z,95.33
2022-10-14T08:13:06.360Z,95.44
2022-10-14T08:15:38.812Z,95.62
2022-10-14T08:18:08.390Z,95.43
2022-10-14T08:20:38.775Z,95.66
2022-10-14T08:23:07.388Z,95.82
2022-10-14T08:25:37.726Z,95.91
2022-10-14T08:28:06.540Z,96.06
2022-10-14T08:30:35.214Z,96.14
2022-10-14T08:33:03.910Z,96.01
2022-10-14T08:35:32.518Z,95.86
2022-10-14T08:38:03.480Z,95.84
2022-10-14T08:40:49.114Z,96.08
2022-10-14T08:43:31.286Z,96.16
2022-10-14T08:46:12.549Z,95.94
2022-10-14T08:48:41.864Z,96.25
2022-10-14T08:51:15.505Z,96.34
2022-10-14T08:53:51.545Z,96.41
2022-10-14T08:56:21.849Z,96.51
2022-10-14T08:58:54.499Z,96.42
2022-10-14T09:01:29.038Z,96.55
2022-10-14T09:04:01.911Z,96.33
2022-10-14T09:06:34.624Z,96.03
2022-10-14T09:09:15.479Z,95.43
2022-10-14T09:11:49.358Z,95.90
2022-10-14T09:14:22.846Z,95.00
2022-10-14T09:16:58.012Z,94.92
2022-10-14T09:19:33.381Z,93.56
2022-10-14T09:22:03.423Z,93.58
2022-10-14T09:24:36.681Z,93.39
2022-10-14T09:27:08.594Z,93.35
2022-10-14T09:29:47.972Z,93.35
2022-10-14T09:32:28.370Z,93.68
2022-10-14T09:34:58.696Z,93.35
2022-10-14T09:37:30.909Z,92.52
2022-10-14T09:40:11.455Z,92.17
2022-10-14T09:42:49.876Z,91.66
2022-10-14T09:45:22.652Z,91.67
2022-10-14T09:47:56.710Z,91.69
2022-10-14T09:50:32.049Z,90.11
2022-10-14T09:53:09.248Z,90.90
2022-10-14T09:55:49.397Z,89.32
2022-10-14T09:58:26.656Z,89.83
2022-10-14T10:00:59.299Z,88.49
2022-10-14T10:03:32.613Z,87.21
2022-10-14T10:06:05.653Z,86.95
2022-10-14T10:08:35.311Z,81.67
2022-10-14T10:11:10.531Z,82.00
2022-10-14T10:13:46.232Z,81.77
2022-10-14T10:16:26.882Z,80.09
2022-10-14T10:18:57.426Z,80.31
2022-10-14T10:21:29.861Z,79.36
2022-10-14T10:24:01.485Z,77.83
2022-10-14T10:26:33.903Z,75.84
2022-10-14T10:29:06.132Z,74.77
2022-10-14T10:32:12.215Z,75.38
2022-10-14T10:35:09.131Z,74.24
2022-10-14T10:37:50.460Z,73.45
2022-10-14T10:40:53.141Z,73.97
2022-10-14T10:43:53.617Z,73.15
2022-10-14T10:47:00.868Z,73.91
2022-10-14T10:50:08.707Z,74.82
2022-10-14T10:53:01.338Z,75.12
2022-10-14T10:55:40.759Z,75.22
2022-10-14T10:58:26.345Z,76.47
2022-10-14T11:01:08.169Z,76.99
2022-10-14T11:03:57.830Z,76.60
2022-10-14T11:06:55.951Z,77.03
2022-10-14T11:09:58.160Z,76.48
2022-10-14T11:12:35.890Z,78.35
2022-10-14T11:15:23.695Z,78.11
2022-10-14T11:18:01.526Z,77.78
2022-10-14T11:20:44.735Z,77.06
2022-10-14T11:23:41.418Z,76.41
2022-10-14T11:26:29.915Z,76.37
2022-10-14T11:29:18.938Z,77.13
2022-10-14T11:32:04.116Z,77.22
2022-10-14T11:34:49.870Z,77.40
2022-10-14T11:37:35.955Z,77.60
2022-10-14T11:40:21.269Z,78.55
2022-10-14T11:43:10.362Z,77.64
2022-10-14T11:45:50.058Z,77.51
2022-10-14T11:48:31.259Z,77.97
2022-10-14T11:51:12.683Z,78.61
2022-10-14T11:54:04.926Z,78.38
2022-10-14T11:56:43.521Z,78.31
2022-10-14T11:59:55.928Z,79.28
2022-10-14T12:02:42.055Z,79.49
2022-10-14T12:05:22.762Z,78.02
2022-10-14T12:08:10.910Z,78.82
2022-10-14T12:12:15.810Z,78.47
2022-10-14T12:14:50.226Z,78.26
2022-10-14T12:17:27.349Z,78.49
2022-10-14T12:19:57.071Z,78.61
2022-10-14T12:22:30.570Z,77.49
2022-10-14T12:25:07.476Z,77.88
2022-10-14T12:27:37.957Z,77.50
2022-10-14T12:30:37.083Z,78.45
2022-10-14T12:33:10.653Z,78.09
2022-10-14T12:36:00.975Z,76.58
2022-10-14T12:38:34.626Z,76.18
2022-10-14T12:41:43.618Z,76.68
2022-10-14T12:44:18.768Z,76.49
2022-10-14T12:46:53.219Z,75.95
2022-10-14T12:49:31.412Z,75.42
2022-10-14T12:52:04.613Z,75.52
2022-10-14T12:54:35.739Z,76.10
2022-10-14T12:57:20.729Z,75.72
2022-10-14T12:59:53.787Z,75.27
2022-10-14T13:02:35.570Z,76.47
2022-10-14T13:05:10.332Z,77.51
2022-10-14T13:07:46.330Z,76.20
2022-10-14T13:10:50.696Z,75.94
2022-10-14T13:14:21.108Z,75.73
2022-10-14T13:17:01.347Z,74.81
2022-10-14T13:19:46.738Z,74.91
2022-10-14T13:22:43.719Z,74.31
2022-10-14T13:25:21.867Z,74.59
2022-10-14T13:28:17.056Z,73.90
2022-10-14T13:31:04.985Z,73.82
2022-10-14T13:33:43.689Z,73.93
2022-10-14T13:36:23.774Z,73.79
2022-10-14T13:38:59.815Z,74.64
2022-10-14T13:41:31.575Z,73.85
2022-10-14T13:44:03.502Z,73.20
2022-10-14T13:46:42.503Z,72.87
2022-10-14T13:49:21.006Z,74.00
2022-10-14T13:51:54.549Z,73.32
2022-10-14T13:54:25.999Z,73.94
2022-10-14T13:57:34.735Z,72.06
2022-10-14T14:02:49.044Z,72.93
2022-10-14T14:05:27.725Z,72.97
2022-10-14T14:11:17.299Z,73.42
2022-10-14T14:14:01.063Z,73.79
2022-10-14T14:16:39.531Z,73.95
2022-10-14T14:19:20.937Z,74.33
2022-10-14T14:21:51.489Z,74.41
2022-10-14T14:24:25.402Z,74.57
2022-10-14T14:26:56.921Z,74.65
2022-10-14T14:29:30.262Z,75.14
2022-10-14T14:32:09.026Z,75.09
2022-10-14T14:34:44.065Z,75.27
2022-10-14T14:37:43.934Z,74.75
2022-10-14T14:40:20.791Z,74.99
2022-10-14T14:42:53.960Z,75.07
2022-10-14T14:45:26.671Z,75.29
2022-10-14T14:47:59.424Z,75.42
2022-10-14T14:50:38.340Z,75.16
2022-10-14T14:53:16.083Z,75.98
2022-10-14T14:55:58.770Z,76.35
2022-10-14T14:58:35.509Z,76.48
2022-10-14T15:01:08.617Z,76.39
2022-10-14T15:04:12.258Z,76.19
2022-10-14T15:06:51.888Z,77.01
2022-10-14T15:09:27.765Z,77.10
2022-10-14T15:11:59.027Z,77.57
2022-10-14T15:14:35.444Z,77.72
2022-10-14T15:17:06.847Z,77.94
2022-10-14T15:19:38.790Z,78.48
2022-10-14T15:22:29.646Z,78.51
2022-10-14T15:25:03.958Z,78.87
2022-10-14T15:27:49.423Z,79.49
2022-10-14T15:30:27.332Z,79.30
2022-10-14T15:33:00.154Z,79.58
2022-10-14T15:35:30.760Z,79.84
2022-10-14T15:38:00.890Z,80.34
2022-10-14T15:40:32.905Z,80.37
2022-10-14T15:43:01.597Z,80.29
2022-10-14T15:45:30.414Z,80.76
2022-10-14T15:48:05.154Z,81.06
2022-10-14T15:50:36.228Z,81.48
2022-10-14T15:53:06.323Z,81.42
2022-10-14T15:55:35.977Z,81.47
2022-10-14T15:58:09.365Z,81.61
2022-10-14T16:00:38.352Z,81.85
2022-10-14T16:03:07.786Z,81.84
2022-10-14T16:05:38.733Z,81.99
2022-10-14T16:08:15.314Z,82.33
2022-10-14T16:10:47.283Z,82.58
2022-10-14T16:13:17.107Z,82.45
2022-10-14T16:15:50.425Z,82.74
2022-10-14T16:18:22.384Z,82.57
2022-10-14T16:20:53.597Z,82.77
2022-10-14T16:23:29.650Z,83.05
2022-10-14T16:26:02.013Z,83.17
2022-10-14T16:28:31.134Z,83.05
2022-10-14T16:31:01.193Z,83.16
2022-10-14T16:33:30.154Z,83.07
2022-10-14T16:36:00.211Z,83.11
2022-10-14T16:38:30.792Z,83.08
2022-10-14T16:41:02.316Z,82.69
2022-10-14T16:43:31.602Z,83.09
2022-10-14T16:46:03.654Z,83.20
2022-10-14T16:48:34.199Z,82.88
2022-10-14T16:51:03.379Z,83.70
2022-10-14T16:53:45.103Z,84.03
2022-10-14T16:56:35.017Z,84.05
2022-10-14T16:59:05.154Z,84.25
2022-10-14T17:01:33.974Z,84.21
2022-10-14T17:04:03.965Z,84.14
2022-10-14T17:06:33.542Z,84.05
2022-10-14T17:09:04.437Z,84.25
2022-10-14T17:11:33.767Z,84.60
2022-10-14T17:14:03.924Z,84.53
2022-10-14T17:16:33.381Z,84.93
2022-10-14T17:19:02.884Z,84.62
2022-10-14T17:21:31.952Z,85.02
2022-10-14T17:24:03.520Z,84.91
2022-10-14T17:26:35.056Z,84.78
2022-10-14T17:29:04.653Z,84.86
2022-10-14T17:31:34.404Z,85.06
2022-10-14T17:34:05.317Z,85.84
2022-10-14T17:36:34.647Z,85.87
2022-10-14T17:39:06.345Z,85.79
2022-10-14T17:41:36.137Z,85.39
2022-10-14T17:44:06.744Z,85.26
2022-10-14T17:46:37.630Z,85.29
2022-10-14T17:49:10.703Z,85.37
2022-10-14T17:51:40.875Z,85.45
2022-10-14T17:54:13.392Z,85.33
2022-10-14T17:56:44.938Z,85.18
2022-10-14T17:59:14.483Z,84.97
2022-10-14T18:02:01.582Z,84.97
2022-10-14T18:04:32.673Z,85.07
2022-10-14T18:07:02.386Z,85.16
2022-10-14T18:09:34.169Z,85.38
2022-10-14T18:12:08.908Z,85.06
2022-10-14T18:14:41.142Z,85.03
2022-10-14T18:17:12.474Z,85.19
2022-10-14T18:19:45.031Z,85.09
2022-10-14T18:22:17.917Z,84.92
2022-10-14T18:24:49.137Z,84.82
2022-10-14T18:27:18.196Z,84.57
2022-10-14T18:29:47.420Z,84.66
2022-10-14T18:37:22.051Z,84.60
2022-10-14T18:39:49.495Z,84.48
2022-10-14T18:42:20.079Z,85.05
2022-10-14T18:44:49.912Z,85.50
2022-10-14T18:47:19.374Z,85.21
2022-10-14T18:49:49.796Z,85.21
2022-10-14T18:52:23.031Z,85.31
2022-10-14T18:54:53.685Z,85.49
2022-10-14T18:57:24.142Z,85.72
2022-10-14T18:59:53.584Z,85.56
2022-10-14T19:02:22.936Z,85.94
2022-10-14T19:04:52.782Z,85.63
2022-10-14T19:07:21.430Z,85.67
2022-10-14T19:09:51.901Z,85.60
2022-10-14T19:12:42.759Z,85.43
2022-10-14T19:15:12.635Z,85.70
2022-10-14T19:17:42.930Z,85.68
2022-10-14T19:20:12.115Z,85.95
2022-10-14T19:22:44.889Z,86.05
2022-10-14T19:25:13.597Z,86.04
2022-10-14T19:27:43.980Z,86.21
2022-10-14T19:30:13.577Z,85.82
2022-10-14T19:32:42.215Z,86.10
2022-10-14T19:35:11.055Z,86.18
2022-10-14T19:37:39.678Z,86.50
2022-10-14T19:40:10.136Z,86.21
2022-10-14T19:42:38.851Z,86.22
2022-10-14T19:45:10.190Z,86.27
2022-10-14T19:47:39.223Z,86.33
2022-10-14T19:50:09.683Z,86.61
2022-10-14T19:52:38.263Z,86.61
2022-10-14T19:55:08.604Z,86.79
2022-10-14T19:57:37.243Z,86.59
2022-10-14T20:00:09.059Z,86.50
2022-10-14T20:05:08.395Z,87.06
2022-10-14T20:07:37.049Z,86.83
2022-10-14T20:10:07.009Z,87.07
2022-10-14T20:12:35.685Z,86.99
2022-10-14T20:15:04.699Z,86.97
2022-10-14T20:17:35.126Z,87.16
2022-10-14T20:20:03.789Z,87.17
2022-10-14T20:22:33.818Z,87.28
2022-10-14T20:25:02.395Z,87.25
2022-10-14T20:27:31.052Z,87.78
2022-10-14T20:29:59.795Z,87.58
2022-10-14T20:32:28.408Z,87.42
2022-10-14T20:35:01.809Z,87.59
2022-10-14T20:37:33.028Z,87.80
2022-10-14T20:40:02.066Z,87.69
2022-10-14T20:42:30.692Z,87.80
2022-10-14T20:44:59.267Z,88.01
2022-10-14T20:47:27.862Z,88.27
2022-10-14T20:49:57.967Z,88.38
2022-10-14T20:52:26.704Z,88.27
2022-10-14T20:54:55.339Z,88.44
2022-10-14T20:57:25.000Z,88.67
2022-10-14T20:59:53.857Z,88.86
2022-10-14T21:02:23.335Z,88.93
2022-10-14T21:04:54.110Z,89.21
2022-10-14T21:07:24.705Z,89.58
2022-10-14T21:09:53.648Z,89.72
2022-10-14T21:12:22.636Z,89.83
2022-10-14T21:14:51.615Z,90.03
2022-10-14T21:17:20.411Z,89.89
2022-10-14T21:19:50.165Z,90.64
2022-10-14T21:22:18.799Z,90.82
2022-10-14T21:24:48.803Z,90.92
2022-10-14T21:27:17.524Z,91.36
2022-10-14T21:29:46.236Z,91.74
2022-10-14T21:32:14.948Z,91.48
2022-10-14T21:34:43.537Z,91.71
2022-10-14T21:37:12.197Z,92.09
2022-10-14T21:39:40.900Z,90.90
2022-10-14T21:42:11.161Z,91.16
2022-10-14T21:44:39.832Z,91.04
2022-10-14T21:47:08.437Z,91.12
2022-10-14T21:49:37.168Z,90.96
2022-10-14T21:52:06.185Z,90.77
2022-10-14T21:54:34.850Z,91.08
2022-10-14T21:57:03.473Z,90.65
2022-10-14T21:59:33.460Z,90.55
2022-10-14T22:02:02.158Z,90.62
2022-10-14T22:04:34.510Z,90.61
2022-10-14T22:07:06.686Z,90.71
2022-10-14T22:09:35.302Z,90.82
2022-10-14T22:12:04.935Z,90.78
2022-10-14T22:14:34.981Z,90.78
2022-10-14T22:17:03.687Z,90.92
2022-10-14T22:19:32.570Z,91.18
2022-10-14T22:22:03.323Z,91.28
2022-10-14T22:24:32.053Z,91.18
2022-10-14T22:27:00.704Z,91.12
2022-10-14T22:29:29.469Z,90.88
2022-10-14T22:31:59.494Z,90.96
2022-10-14T22:34:28.034Z,91.08
2022-10-14T22:36:56.739Z,91.35
2022-10-14T22:39:27.159Z,91.71
2022-10-14T22:41:55.765Z,91.55
2022-10-14T22:44:24.566Z,91.82
2022-10-14T22:46:54.621Z,92.16
2022-10-14T22:49:24.740Z,92.61
2022-10-14T22:51:56.613Z,92.52
2022-10-14T22:54:25.685Z,92.58
2022-10-14T22:56:54.300Z,92.82
2022-10-14T22:59:22.961Z,93.02
2022-10-14T23:01:51.766Z,92.95
2022-10-14T23:04:20.868Z,93.28
2022-10-14T23:06:51.679Z,93.35
2022-10-14T23:09:20.321Z,93.46
2022-10-14T23:11:49.014Z,93.96
2022-10-14T23:14:17.700Z,93.87
2022-10-14T23:16:46.309Z,94.03
2022-10-14T23:19:14.932Z,93.95
2022-10-14T23:21:44.624Z,94.02
2022-10-14T23:24:14.734Z,94.22
2022-10-14T23:26:43.383Z,94.40
2022-10-14T23:29:13.046Z,94.58
2022-10-14T23:31:43.490Z,94.82
2022-10-14T23:34:15.157Z,94.85
2022-10-14T23:36:44.277Z,94.68
2022-10-14T23:39:14.480Z,94.71
2022-10-14T23:41:43.439Z,94.89
2022-10-14T23:44:13.110Z,94.74
2022-10-14T23:46:41.829Z,94.95
2022-10-14T23:49:26.024Z,94.88
2022-10-14T23:51:55.467Z,95.12
2022-10-14T23:54:25.728Z,95.04
2022-10-14T23:56:54.405Z,95.10
2022-10-14T23:59:23.059Z,95.22
